sensor_id;sensor_type;location;lat;lon;timestamp;P1;durP1;ratioP1;P2;durP2;ratioP2
59830;SDS011;45711;50.108;13.712;2022-08-21T00:00:17;20.77;;;12.57;;
59830;SDS011;45711;50.108;13.712;2022-08-21T00:02:45;21.98;;;11.85;;
59830;SDS011;45711;50.108;13.712;2022-08-21T00:05:12;16.67;;;11.73;;
59830;SDS011;45711;50.108;13.712;2022-08-21T00:07:39;26.95;;;12.82;;
59830;SDS011;45711;50.108;13.712;2022-08-21T00:10:07;18.27;;;12.57;;
59830;SDS011;45711;50.108;13.712;2022-08-21T00:12:34;17.30;;;11.63;;
59830;SDS011;45711;50.108;13.712;2022-08-21T00:15:02;22.70;;;11.65;;
59830;SDS011;45711;50.108;13.712;2022-08-21T00:17:29;17.92;;;11.60;;
59830;SDS011;45711;50.108;13.712;2022-08-21T00:19:54;15.48;;;10.90;;
59830;SDS011;45711;50.108;13.712;2022-08-21T00:22:20;17.50;;;10.23;;
59830;SDS011;45711;50.108;13.712;2022-08-21T00:24:45;15.90;;;10.20;;
59830;SDS011;45711;50.108;13.712;2022-08-21T00:27:11;17.33;;;11.27;;
59830;SDS011;45711;50.108;13.712;2022-08-21T00:29:36;15.38;;;12.20;;
59830;SDS011;45711;50.108;13.712;2022-08-21T00:32:04;18.08;;;12.35;;
59830;SDS011;45711;50.108;13.712;2022-08-21T00:34:29;17.33;;;12.13;;
59830;SDS011;45711;50.108;13.712;2022-08-21T00:36:55;19.10;;;12.75;;
59830;SDS011;45711;50.108;13.712;2022-08-21T00:39:20;21.52;;;12.32;;
59830;SDS011;45711;50.108;13.712;2022-08-21T00:41:46;17.45;;;12.68;;
59830;SDS011;45711;50.108;13.712;2022-08-21T00:44:12;24.23;;;12.82;;
59830;SDS011;45711;50.108;13.712;2022-08-21T00:46:39;25.70;;;12.50;;
59830;SDS011;45711;50.108;13.712;2022-08-21T00:49:07;16.38;;;12.40;;
59830;SDS011;45711;50.108;13.712;2022-08-21T00:51:35;19.30;;;12.10;;
59830;SDS011;45711;50.108;13.712;2022-08-21T00:54:03;19.85;;;12.20;;
59830;SDS011;45711;50.108;13.712;2022-08-21T00:56:30;19.88;;;12.55;;
59830;SDS011;45711;50.108;13.712;2022-08-21T00:58:56;25.58;;;12.43;;
59830;SDS011;45711;50.108;13.712;2022-08-21T01:01:23;19.67;;;12.45;;
59830;SDS011;45711;50.108;13.712;2022-08-21T01:03:49;18.83;;;12.40;;
59830;SDS011;45711;50.108;13.712;2022-08-21T01:06:16;17.38;;;12.65;;
59830;SDS011;45711;50.108;13.712;2022-08-21T01:08:42;25.17;;;12.15;;
59830;SDS011;45711;50.108;13.712;2022-08-21T01:11:07;19.88;;;12.18;;
59830;SDS011;45711;50.108;13.712;2022-08-21T01:13:36;17.67;;;11.57;;
59830;SDS011;45711;50.108;13.712;2022-08-21T01:16:04;18.52;;;12.48;;
59830;SDS011;45711;50.108;13.712;2022-08-21T01:18:33;19.23;;;12.38;;
59830;SDS011;45711;50.108;13.712;2022-08-21T01:21:04;23.38;;;13.70;;
59830;SDS011;45711;50.108;13.712;2022-08-21T01:23:33;24.30;;;13.88;;
59830;SDS011;45711;50.108;13.712;2022-08-21T01:25:58;15.75;;;11.95;;
59830;SDS011;45711;50.108;13.712;2022-08-21T01:28:24;19.77;;;12.70;;
59830;SDS011;45711;50.108;13.712;2022-08-21T01:30:52;20.25;;;12.98;;
59830;SDS011;45711;50.108;13.712;2022-08-21T01:33:19;19.00;;;12.15;;
59830;SDS011;45711;50.108;13.712;2022-08-21T01:35:46;20.58;;;12.18;;
59830;SDS011;45711;50.108;13.712;2022-08-21T01:38:13;19.40;;;13.30;;
59830;SDS011;45711;50.108;13.712;2022-08-21T01:40:39;19.13;;;13.23;;
59830;SDS011;45711;50.108;13.712;2022-08-21T01:43:04;22.70;;;13.57;;
59830;SDS011;45711;50.108;13.712;2022-08-21T01:45:33;21.08;;;12.95;;
59830;SDS011;45711;50.108;13.712;2022-08-21T01:47:58;19.23;;;13.15;;
59830;SDS011;45711;50.108;13.712;2022-08-21T01:50:24;20.50;;;12.98;;
59830;SDS011;45711;50.108;13.712;2022-08-21T01:52:50;24.73;;;13.27;;
59830;SDS011;45711;50.108;13.712;2022-08-21T01:55:17;18.73;;;13.48;;
59830;SDS011;45711;50.108;13.712;2022-08-21T01:57:44;24.48;;;13.95;;
59830;SDS011;45711;50.108;13.712;2022-08-21T02:00:11;20.25;;;12.85;;
59830;SDS011;45711;50.108;13.712;2022-08-21T02:02:39;19.50;;;13.32;;
59830;SDS011;45711;50.108;13.712;2022-08-21T02:05:06;21.70;;;14.25;;
59830;SDS011;45711;50.108;13.712;2022-08-21T02:07:35;16.73;;;13.57;;
59830;SDS011;45711;50.108;13.712;2022-08-21T02:10:02;16.27;;;13.65;;
59830;SDS011;45711;50.108;13.712;2022-08-21T02:12:29;21.25;;;14.40;;
59830;SDS011;45711;50.108;13.712;2022-08-21T02:14:55;21.58;;;15.20;;
59830;SDS011;45711;50.108;13.712;2022-08-21T02:17:21;23.90;;;14.25;;
59830;SDS011;45711;50.108;13.712;2022-08-21T02:19:49;17.88;;;14.50;;
59830;SDS011;45711;50.108;13.712;2022-08-21T02:22:14;18.23;;;13.93;;
59830;SDS011;45711;50.108;13.712;2022-08-21T02:24:40;23.35;;;14.70;;
59830;SDS011;45711;50.108;13.712;2022-08-21T02:27:06;23.70;;;14.93;;
59830;SDS011;45711;50.108;13.712;2022-08-21T02:29:33;17.75;;;14.38;;
59830;SDS011;45711;50.108;13.712;2022-08-21T02:31:58;20.60;;;14.93;;
59830;SDS011;45711;50.108;13.712;2022-08-21T02:34:24;23.95;;;14.45;;
59830;SDS011;45711;50.108;13.712;2022-08-21T02:36:50;27.70;;;15.20;;
59830;SDS011;45711;50.108;13.712;2022-08-21T02:39:18;22.63;;;14.30;;
59830;SDS011;45711;50.108;13.712;2022-08-21T02:41:44;22.00;;;14.73;;
59830;SDS011;45711;50.108;13.712;2022-08-21T02:44:10;20.23;;;14.07;;
59830;SDS011;45711;50.108;13.712;2022-08-21T02:46:37;21.40;;;13.63;;
59830;SDS011;45711;50.108;13.712;2022-08-21T02:49:03;20.70;;;13.85;;
59830;SDS011;45711;50.108;13.712;2022-08-21T02:51:28;19.30;;;13.55;;
59830;SDS011;45711;50.108;13.712;2022-08-21T02:53:55;20.70;;;14.38;;
59830;SDS011;45711;50.108;13.712;2022-08-21T02:56:21;21.35;;;14.25;;
59830;SDS011;45711;50.108;13.712;2022-08-21T02:58:48;23.85;;;13.80;;
59830;SDS011;45711;50.108;13.712;2022-08-21T03:01:16;20.55;;;14.75;;
59830;SDS011;45711;50.108;13.712;2022-08-21T03:03:44;24.95;;;15.73;;
59830;SDS011;45711;50.108;13.712;2022-08-21T03:06:12;21.52;;;14.65;;
59830;SDS011;45711;50.108;13.712;2022-08-21T03:08:40;17.40;;;13.32;;
59830;SDS011;45711;50.108;13.712;2022-08-21T03:11:05;21.67;;;14.38;;
59830;SDS011;45711;50.108;13.712;2022-08-21T03:13:32;20.27;;;14.75;;
59830;SDS011;45711;50.108;13.712;2022-08-21T03:15:57;26.30;;;15.48;;
59830;SDS011;45711;50.108;13.712;2022-08-21T03:18:23;25.02;;;15.10;;
59830;SDS011;45711;50.108;13.712;2022-08-21T03:20:50;22.05;;;14.70;;
59830;SDS011;45711;50.108;13.712;2022-08-21T03:23:16;26.40;;;15.95;;
59830;SDS011;45711;50.108;13.712;2022-08-21T03:25:43;20.90;;;14.98;;
59830;SDS011;45711;50.108;13.712;2022-08-21T03:28:11;22.95;;;15.63;;
59830;SDS011;45711;50.108;13.712;2022-08-21T03:30:39;21.60;;;14.40;;
59830;SDS011;45711;50.108;13.712;2022-08-21T03:33:06;24.90;;;14.48;;
59830;SDS011;45711;50.108;13.712;2022-08-21T03:35:31;18.20;;;14.30;;
59830;SDS011;45711;50.108;13.712;2022-08-21T03:37:58;23.83;;;15.40;;
59830;SDS011;45711;50.108;13.712;2022-08-21T03:40:24;23.83;;;14.90;;
59830;SDS011;45711;50.108;13.712;2022-08-21T03:42:51;19.02;;;13.80;;
59830;SDS011;45711;50.108;13.712;2022-08-21T03:45:17;21.98;;;15.23;;
59830;SDS011;45711;50.108;13.712;2022-08-21T03:47:51;24.90;;;14.93;;
59830;SDS011;45711;50.108;13.712;2022-08-21T03:50:18;20.60;;;15.98;;
59830;SDS011;45711;50.108;13.712;2022-08-21T03:52:44;21.73;;;14.93;;
59830;SDS011;45711;50.108;13.712;2022-08-21T03:55:11;20.92;;;15.60;;
59830;SDS011;45711;50.108;13.712;2022-08-21T03:57:37;20.75;;;14.95;;
59830;SDS011;45711;50.108;13.712;2022-08-21T04:00:03;22.80;;;14.73;;
59830;SDS011;45711;50.108;13.712;2022-08-21T04:02:33;18.88;;;14.95;;
59830;SDS011;45711;50.108;13.712;2022-08-21T04:04:59;17.88;;;14.10;;
59830;SDS011;45711;50.108;13.712;2022-08-21T04:07:24;22.60;;;14.60;;
59830;SDS011;45711;50.108;13.712;2022-08-21T04:09:50;19.08;;;13.77;;
59830;SDS011;45711;50.108;13.712;2022-08-21T04:12:17;22.45;;;13.70;;
59830;SDS011;45711;50.108;13.712;2022-08-21T04:14:44;23.80;;;14.35;;
59830;SDS011;45711;50.108;13.712;2022-08-21T04:17:11;18.98;;;13.90;;
59830;SDS011;45711;50.108;13.712;2022-08-21T04:19:37;20.40;;;13.75;;
59830;SDS011;45711;50.108;13.712;2022-08-21T04:22:03;17.45;;;13.57;;
59830;SDS011;45711;50.108;13.712;2022-08-21T04:24:29;18.83;;;14.63;;
59830;SDS011;45711;50.108;13.712;2022-08-21T04:26:54;17.92;;;13.40;;
59830;SDS011;45711;50.108;13.712;2022-08-21T04:29:21;20.55;;;14.35;;
59830;SDS011;45711;50.108;13.712;2022-08-21T04:31:47;20.13;;;14.02;;
59830;SDS011;45711;50.108;13.712;2022-08-21T04:34:13;21.58;;;14.65;;
59830;SDS011;45711;50.108;13.712;2022-08-21T04:36:39;22.27;;;13.75;;
59830;SDS011;45711;50.108;13.712;2022-08-21T04:39:05;24.98;;;14.15;;
59830;SDS011;45711;50.108;13.712;2022-08-21T04:41:30;19.50;;;14.43;;
59830;SDS011;45711;50.108;13.712;2022-08-21T04:43:56;19.83;;;14.85;;
59830;SDS011;45711;50.108;13.712;2022-08-21T04:46:23;20.25;;;14.95;;
59830;SDS011;45711;50.108;13.712;2022-08-21T04:48:49;21.90;;;14.85;;
59830;SDS011;45711;50.108;13.712;2022-08-21T04:51:15;23.05;;;15.77;;
59830;SDS011;45711;50.108;13.712;2022-08-21T04:53:44;22.67;;;15.82;;
59830;SDS011;45711;50.108;13.712;2022-08-21T04:56:12;28.15;;;17.08;;
59830;SDS011;45711;50.108;13.712;2022-08-21T04:58:40;21.63;;;16.33;;
59830;SDS011;45711;50.108;13.712;2022-08-21T05:01:08;18.55;;;14.98;;
59830;SDS011;45711;50.108;13.712;2022-08-21T05:03:37;22.70;;;14.90;;
59830;SDS011;45711;50.108;13.712;2022-08-21T05:06:04;18.90;;;14.45;;
59830;SDS011;45711;50.108;13.712;2022-08-21T05:08:34;17.60;;;14.20;;
59830;SDS011;45711;50.108;13.712;2022-08-21T05:11:01;19.40;;;14.98;;
59830;SDS011;45711;50.108;13.712;2022-08-21T05:13:28;22.65;;;14.60;;
59830;SDS011;45711;50.108;13.712;2022-08-21T05:15:54;20.33;;;15.07;;
59830;SDS011;45711;50.108;13.712;2022-08-21T05:18:20;19.30;;;15.15;;
59830;SDS011;45711;50.108;13.712;2022-08-21T05:20:47;17.08;;;13.65;;
59830;SDS011;45711;50.108;13.712;2022-08-21T05:23:13;17.95;;;14.10;;
59830;SDS011;45711;50.108;13.712;2022-08-21T05:25:40;20.73;;;14.70;;
59830;SDS011;45711;50.108;13.712;2022-08-21T05:28:06;20.00;;;13.75;;
59830;SDS011;45711;50.108;13.712;2022-08-21T05:30:32;19.98;;;13.90;;
59830;SDS011;45711;50.108;13.712;2022-08-21T05:32:58;17.13;;;13.43;;
59830;SDS011;45711;50.108;13.712;2022-08-21T05:35:26;17.10;;;13.77;;
59830;SDS011;45711;50.108;13.712;2022-08-21T05:37:54;18.02;;;13.43;;
59830;SDS011;45711;50.108;13.712;2022-08-21T05:40:20;17.05;;;13.65;;
59830;SDS011;45711;50.108;13.712;2022-08-21T05:42:47;16.88;;;13.60;;
59830;SDS011;45711;50.108;13.712;2022-08-21T05:45:12;18.77;;;13.73;;
59830;SDS011;45711;50.108;13.712;2022-08-21T05:47:38;20.23;;;15.07;;
59830;SDS011;45711;50.108;13.712;2022-08-21T05:50:07;23.70;;;15.20;;
59830;SDS011;45711;50.108;13.712;2022-08-21T05:52:33;20.27;;;14.23;;
59830;SDS011;45711;50.108;13.712;2022-08-21T05:55:00;20.60;;;14.70;;
59830;SDS011;45711;50.108;13.712;2022-08-21T05:57:26;18.90;;;14.45;;
59830;SDS011;45711;50.108;13.712;2022-08-21T05:59:52;18.65;;;13.93;;
59830;SDS011;45711;50.108;13.712;2022-08-21T06:02:18;15.50;;;12.80;;
59830;SDS011;45711;50.108;13.712;2022-08-21T06:04:48;12.75;;;11.32;;
59830;SDS011;45711;50.108;13.712;2022-08-21T06:07:17;17.45;;;11.85;;
59830;SDS011;45711;50.108;13.712;2022-08-21T06:09:42;14.65;;;11.35;;
59830;SDS011;45711;50.108;13.712;2022-08-21T06:12:11;11.43;;;10.02;;
59830;SDS011;45711;50.108;13.712;2022-08-21T06:14:38;13.90;;;9.63;;
59830;SDS011;45711;50.108;13.712;2022-08-21T06:17:05;13.05;;;9.93;;
59830;SDS011;45711;50.108;13.712;2022-08-21T06:19:33;12.25;;;9.30;;
59830;SDS011;45711;50.108;13.712;2022-08-21T06:21:59;10.95;;;9.55;;
59830;SDS011;45711;50.108;13.712;2022-08-21T06:24:25;10.43;;;8.70;;
59830;SDS011;45711;50.108;13.712;2022-08-21T06:26:51;11.77;;;8.15;;
59830;SDS011;45711;50.108;13.712;2022-08-21T06:29:18;11.25;;;8.45;;
59830;SDS011;45711;50.108;13.712;2022-08-21T06:31:45;10.07;;;7.35;;
59830;SDS011;45711;50.108;13.712;2022-08-21T06:34:11;7.70;;;5.78;;
59830;SDS011;45711;50.108;13.712;2022-08-21T06:36:41;6.72;;;6.05;;
59830;SDS011;45711;50.108;13.712;2022-08-21T06:39:07;6.72;;;6.03;;
59830;SDS011;45711;50.108;13.712;2022-08-21T06:41:33;9.27;;;5.90;;
59830;SDS011;45711;50.108;13.712;2022-08-21T06:43:59;7.78;;;6.65;;
59830;SDS011;45711;50.108;13.712;2022-08-21T06:46:28;8.77;;;6.50;;
59830;SDS011;45711;50.108;13.712;2022-08-21T06:48:55;8.52;;;5.60;;
59830;SDS011;45711;50.108;13.712;2022-08-21T06:51:21;6.28;;;4.90;;
59830;SDS011;45711;50.108;13.712;2022-08-21T06:53:47;7.82;;;5.53;;
59830;SDS011;45711;50.108;13.712;2022-08-21T06:56:13;7.05;;;5.22;;
59830;SDS011;45711;50.108;13.712;2022-08-21T06:58:39;5.57;;;4.93;;
59830;SDS011;45711;50.108;13.712;2022-08-21T07:01:05;6.82;;;5.22;;
59830;SDS011;45711;50.108;13.712;2022-08-21T07:03:33;4.72;;;4.22;;
59830;SDS011;45711;50.108;13.712;2022-08-21T07:06:00;4.97;;;4.22;;
59830;SDS011;45711;50.108;13.712;2022-08-21T07:08:27;4.40;;;4.00;;
59830;SDS011;45711;50.108;13.712;2022-08-21T07:10:53;5.75;;;4.30;;
59830;SDS011;45711;50.108;13.712;2022-08-21T07:13:21;4.68;;;4.03;;
59830;SDS011;45711;50.108;13.712;2022-08-21T07:15:47;5.07;;;4.25;;
59830;SDS011;45711;50.108;13.712;2022-08-21T07:18:12;5.15;;;4.13;;
59830;SDS011;45711;50.108;13.712;2022-08-21T07:20:42;7.68;;;4.57;;
59830;SDS011;45711;50.108;13.712;2022-08-21T07:23:09;5.32;;;4.10;;
59830;SDS011;45711;50.108;13.712;2022-08-21T07:25:37;10.52;;;4.68;;
59830;SDS011;45711;50.108;13.712;2022-08-21T07:28:03;5.93;;;3.75;;
59830;SDS011;45711;50.108;13.712;2022-08-21T07:30:29;10.10;;;4.60;;
59830;SDS011;45711;50.108;13.712;2022-08-21T07:32:58;6.47;;;3.70;;
59830;SDS011;45711;50.108;13.712;2022-08-21T07:35:26;4.72;;;3.67;;
59830;SDS011;45711;50.108;13.712;2022-08-21T07:37:54;4.40;;;3.70;;
59830;SDS011;45711;50.108;13.712;2022-08-21T07:40:20;5.43;;;3.35;;
59830;SDS011;45711;50.108;13.712;2022-08-21T07:42:48;6.40;;;3.40;;
59830;SDS011;45711;50.108;13.712;2022-08-21T07:45:16;4.57;;;3.83;;
59830;SDS011;45711;50.108;13.712;2022-08-21T07:47:43;5.57;;;3.40;;
59830;SDS011;45711;50.108;13.712;2022-08-21T07:50:09;5.07;;;4.10;;
59830;SDS011;45711;50.108;13.712;2022-08-21T07:52:36;5.47;;;4.57;;
59830;SDS011;45711;50.108;13.712;2022-08-21T07:55:03;6.65;;;4.28;;
59830;SDS011;45711;50.108;13.712;2022-08-21T07:57:30;8.80;;;3.60;;
59830;SDS011;45711;50.108;13.712;2022-08-21T07:59:55;5.45;;;4.20;;
59830;SDS011;45711;50.108;13.712;2022-08-21T08:02:22;7.95;;;4.70;;
59830;SDS011;45711;50.108;13.712;2022-08-21T08:04:48;6.68;;;4.32;;
59830;SDS011;45711;50.108;13.712;2022-08-21T08:07:14;5.63;;;4.63;;
59830;SDS011;45711;50.108;13.712;2022-08-21T08:09:40;6.05;;;4.88;;
59830;SDS011;45711;50.108;13.712;2022-08-21T08:12:07;5.35;;;4.07;;
59830;SDS011;45711;50.108;13.712;2022-08-21T08:14:32;7.85;;;4.78;;
59830;SDS011;45711;50.108;13.712;2022-08-21T08:16:58;6.75;;;4.40;;
59830;SDS011;45711;50.108;13.712;2022-08-21T08:19:24;5.57;;;4.65;;
59830;SDS011;45711;50.108;13.712;2022-08-21T08:21:50;5.10;;;4.05;;
59830;SDS011;45711;50.108;13.712;2022-08-21T08:24:15;5.82;;;3.83;;
59830;SDS011;45711;50.108;13.712;2022-08-21T08:26:41;8.07;;;4.40;;
59830;SDS011;45711;50.108;13.712;2022-08-21T08:29:08;7.47;;;4.20;;
59830;SDS011;45711;50.108;13.712;2022-08-21T08:31:33;6.25;;;4.43;;
59830;SDS011;45711;50.108;13.712;2022-08-21T08:33:59;4.35;;;3.90;;
59830;SDS011;45711;50.108;13.712;2022-08-21T08:36:31;6.53;;;4.30;;
59830;SDS011;45711;50.108;13.712;2022-08-21T08:41:24;7.82;;;4.25;;
59830;SDS011;45711;50.108;13.712;2022-08-21T08:43:50;6.40;;;4.78;;
59830;SDS011;45711;50.108;13.712;2022-08-21T08:46:22;7.13;;;4.25;;
59830;SDS011;45711;50.108;13.712;2022-08-21T08:48:57;7.00;;;4.25;;
59830;SDS011;45711;50.108;13.712;2022-08-21T08:51:29;5.83;;;3.60;;
59830;SDS011;45711;50.108;13.712;2022-08-21T08:54:07;6.03;;;3.50;;
59830;SDS011;45711;50.108;13.712;2022-08-21T08:56:36;6.85;;;4.35;;
59830;SDS011;45711;50.108;13.712;2022-08-21T08:59:02;5.20;;;3.40;;
59830;SDS011;45711;50.108;13.712;2022-08-21T09:01:38;5.63;;;4.15;;
59830;SDS011;45711;50.108;13.712;2022-08-21T09:04:03;6.80;;;4.13;;
59830;SDS011;45711;50.108;13.712;2022-08-21T09:06:44;6.72;;;3.58;;
59830;SDS011;45711;50.108;13.712;2022-08-21T09:09:23;9.07;;;4.05;;
59830;SDS011;45711;50.108;13.712;2022-08-21T09:12:00;4.97;;;3.90;;
59830;SDS011;45711;50.108;13.712;2022-08-21T09:14:32;6.68;;;4.18;;
59830;SDS011;45711;50.108;13.712;2022-08-21T09:17:13;6.10;;;3.97;;
59830;SDS011;45711;50.108;13.712;2022-08-21T09:19:53;11.98;;;4.30;;
59830;SDS011;45711;50.108;13.712;2022-08-21T09:22:32;3.80;;;2.60;;
59830;SDS011;45711;50.108;13.712;2022-08-21T09:25:10;9.65;;;3.88;;
59830;SDS011;45711;50.108;13.712;2022-08-21T09:27:43;3.70;;;2.83;;
59830;SDS011;45711;50.108;13.712;2022-08-21T09:30:16;3.40;;;3.10;;
59830;SDS011;45711;50.108;13.712;2022-08-21T09:32:44;4.80;;;3.50;;
59830;SDS011;45711;50.108;13.712;2022-08-21T09:35:11;6.60;;;3.83;;
59830;SDS011;45711;50.108;13.712;2022-08-21T09:37:45;7.68;;;3.75;;
59830;SDS011;45711;50.108;13.712;2022-08-21T09:40:15;5.28;;;3.50;;
59830;SDS011;45711;50.108;13.712;2022-08-21T09:42:55;5.72;;;2.85;;
59830;SDS011;45711;50.108;13.712;2022-08-21T09:45:22;5.38;;;3.33;;
59830;SDS011;45711;50.108;13.712;2022-08-21T09:47:49;6.22;;;4.15;;
59830;SDS011;45711;50.108;13.712;2022-08-21T09:50:19;5.00;;;2.95;;
59830;SDS011;45711;50.108;13.712;2022-08-21T09:52:49;6.90;;;3.45;;
59830;SDS011;45711;50.108;13.712;2022-08-21T09:55:30;6.20;;;4.22;;
59830;SDS011;45711;50.108;13.712;2022-08-21T09:58:15;7.65;;;3.20;;
59830;SDS011;45711;50.108;13.712;2022-08-21T10:00:45;3.85;;;2.88;;
59830;SDS011;45711;50.108;13.712;2022-08-21T10:03:23;3.63;;;2.70;;
59830;SDS011;45711;50.108;13.712;2022-08-21T10:05:57;7.35;;;3.63;;
59830;SDS011;45711;50.108;13.712;2022-08-21T10:08:25;8.73;;;4.10;;
59830;SDS011;45711;50.108;13.712;2022-08-21T10:11:02;6.68;;;3.78;;
59830;SDS011;45711;50.108;13.712;2022-08-21T10:13:33;5.60;;;3.60;;
59830;SDS011;45711;50.108;13.712;2022-08-21T10:16:13;6.13;;;2.90;;
59830;SDS011;45711;50.108;13.712;2022-08-21T10:18:54;4.53;;;3.35;;
59830;SDS011;45711;50.108;13.712;2022-08-21T10:21:28;4.88;;;2.20;;
59830;SDS011;45711;50.108;13.712;2022-08-21T10:24:01;6.85;;;3.53;;
59830;SDS011;45711;50.108;13.712;2022-08-21T10:26:40;7.93;;;3.83;;
59830;SDS011;45711;50.108;13.712;2022-08-21T10:29:17;4.53;;;2.75;;
59830;SDS011;45711;50.108;13.712;2022-08-21T10:32:00;4.40;;;3.38;;
59830;SDS011;45711;50.108;13.712;2022-08-21T10:34:36;9.02;;;3.50;;
59830;SDS011;45711;50.108;13.712;2022-08-21T10:37:16;4.65;;;2.78;;
59830;SDS011;45711;50.108;13.712;2022-08-21T10:39:50;6.22;;;3.13;;
59830;SDS011;45711;50.108;13.712;2022-08-21T10:42:27;6.00;;;3.53;;
59830;SDS011;45711;50.108;13.712;2022-08-21T10:45:08;4.28;;;3.35;;
59830;SDS011;45711;50.108;13.712;2022-08-21T10:47:41;4.53;;;2.90;;
59830;SDS011;45711;50.108;13.712;2022-08-21T10:50:16;4.18;;;3.30;;
59830;SDS011;45711;50.108;13.712;2022-08-21T10:52:51;4.20;;;2.67;;
59830;SDS011;45711;50.108;13.712;2022-08-21T10:55:26;5.03;;;3.17;;
59830;SDS011;45711;50.108;13.712;2022-08-21T10:57:57;3.95;;;3.08;;
59830;SDS011;45711;50.108;13.712;2022-08-21T11:00:26;4.93;;;3.47;;
59830;SDS011;45711;50.108;13.712;2022-08-21T11:03:00;4.57;;;2.70;;
59830;SDS011;45711;50.108;13.712;2022-08-21T11:05:33;5.67;;;3.80;;
59830;SDS011;45711;50.108;13.712;2022-08-21T11:08:06;15.13;;;3.88;;
59830;SDS011;45711;50.108;13.712;2022-08-21T11:10:38;6.10;;;4.20;;
59830;SDS011;45711;50.108;13.712;2022-08-21T11:13:08;4.57;;;3.42;;
59830;SDS011;45711;50.108;13.712;2022-08-21T11:15:41;4.03;;;3.25;;
59830;SDS011;45711;50.108;13.712;2022-08-21T11:18:21;4.20;;;3.35;;
59830;SDS011;45711;50.108;13.712;2022-08-21T11:20:54;5.05;;;3.25;;
59830;SDS011;45711;50.108;13.712;2022-08-21T11:23:28;8.13;;;3.30;;
59830;SDS011;45711;50.108;13.712;2022-08-21T11:26:02;3.88;;;2.88;;
59830;SDS011;45711;50.108;13.712;2022-08-21T11:28:33;3.97;;;3.08;;
59830;SDS011;45711;50.108;13.712;2022-08-21T11:31:06;3.83;;;2.45;;
59830;SDS011;45711;50.108;13.712;2022-08-21T11:33:48;4.80;;;3.15;;
59830;SDS011;45711;50.108;13.712;2022-08-21T11:36:25;6.03;;;3.08;;
59830;SDS011;45711;50.108;13.712;2022-08-21T11:39:03;5.63;;;3.10;;
59830;SDS011;45711;50.108;13.712;2022-08-21T11:41:40;3.05;;;2.70;;
59830;SDS011;45711;50.108;13.712;2022-08-21T11:44:10;5.15;;;2.95;;
59830;SDS011;45711;50.108;13.712;2022-08-21T11:46:49;5.25;;;3.65;;
59830;SDS011;45711;50.108;13.712;2022-08-21T11:49:33;5.57;;;3.03;;
59830;SDS011;45711;50.108;13.712;2022-08-21T11:52:10;7.10;;;3.40;;
59830;SDS011;45711;50.108;13.712;2022-08-21T11:54:46;6.22;;;3.20;;
59830;SDS011;45711;50.108;13.712;2022-08-21T11:57:17;4.53;;;3.20;;
59830;SDS011;45711;50.108;13.712;2022-08-21T11:59:49;4.15;;;2.65;;
59830;SDS011;45711;50.108;13.712;2022-08-21T12:02:23;6.97;;;3.80;;
59830;SDS011;45711;50.108;13.712;2022-08-21T12:04:54;5.10;;;4.10;;
59830;SDS011;45711;50.108;13.712;2022-08-21T12:07:34;4.65;;;3.88;;
59830;SDS011;45711;50.108;13.712;2022-08-21T12:10:02;5.75;;;4.13;;
59830;SDS011;45711;50.108;13.712;2022-08-21T12:12:32;4.07;;;3.55;;
59830;SDS011;45711;50.108;13.712;2022-08-21T12:17:57;6.32;;;3.30;;
59830;SDS011;45711;50.108;13.712;2022-08-21T12:20:36;4.95;;;2.85;;
59830;SDS011;45711;50.108;13.712;2022-08-21T12:23:27;6.15;;;3.30;;
59830;SDS011;45711;50.108;13.712;2022-08-21T12:26:10;4.63;;;3.07;;
59830;SDS011;45711;50.108;13.712;2022-08-21T12:28:44;5.03;;;3.33;;
59830;SDS011;45711;50.108;13.712;2022-08-21T12:31:17;10.02;;;4.18;;
59830;SDS011;45711;50.108;13.712;2022-08-21T12:33:53;6.07;;;3.40;;
59830;SDS011;45711;50.108;13.712;2022-08-21T12:36:24;5.40;;;4.03;;
59830;SDS011;45711;50.108;13.712;2022-08-21T12:39:00;8.30;;;3.78;;
59830;SDS011;45711;50.108;13.712;2022-08-21T12:41:32;4.85;;;2.78;;
59830;SDS011;45711;50.108;13.712;2022-08-21T12:44:09;14.95;;;3.22;;
59830;SDS011;45711;50.108;13.712;2022-08-21T12:46:39;7.28;;;2.70;;
59830;SDS011;45711;50.108;13.712;2022-08-21T12:49:12;7.00;;;3.15;;
59830;SDS011;45711;50.108;13.712;2022-08-21T12:51:46;6.63;;;3.22;;
59830;SDS011;45711;50.108;13.712;2022-08-21T12:54:23;4.28;;;3.00;;
59830;SDS011;45711;50.108;13.712;2022-08-21T12:56:58;6.82;;;3.33;;
59830;SDS011;45711;50.108;13.712;2022-08-21T12:59:27;4.85;;;2.63;;
59830;SDS011;45711;50.108;13.712;2022-08-21T13:01:53;4.03;;;2.70;;
59830;SDS011;45711;50.108;13.712;2022-08-21T13:04:21;17.95;;;3.17;;
59830;SDS011;45711;50.108;13.712;2022-08-21T13:07:01;10.00;;;2.70;;
59830;SDS011;45711;50.108;13.712;2022-08-21T13:09:39;5.32;;;2.97;;
59830;SDS011;45711;50.108;13.712;2022-08-21T13:12:09;6.55;;;2.90;;
59830;SDS011;45711;50.108;13.712;2022-08-21T13:14:35;7.82;;;3.13;;
59830;SDS011;45711;50.108;13.712;2022-08-21T13:17:04;5.20;;;2.50;;
59830;SDS011;45711;50.108;13.712;2022-08-21T13:19:32;9.88;;;2.97;;
59830;SDS011;45711;50.108;13.712;2022-08-21T13:21:59;5.75;;;2.40;;
59830;SDS011;45711;50.108;13.712;2022-08-21T13:24:29;4.15;;;2.60;;
59830;SDS011;45711;50.108;13.712;2022-08-21T13:26:58;7.72;;;2.28;;
59830;SDS011;45711;50.108;13.712;2022-08-21T13:29:27;4.80;;;2.42;;
59830;SDS011;45711;50.108;13.712;2022-08-21T13:31:57;2.85;;;2.50;;
59830;SDS011;45711;50.108;13.712;2022-08-21T13:34:28;5.47;;;2.35;;
59830;SDS011;45711;50.108;13.712;2022-08-21T13:37:00;6.78;;;2.85;;
59830;SDS011;45711;50.108;13.712;2022-08-21T13:39:28;6.13;;;2.30;;
59830;SDS011;45711;50.108;13.712;2022-08-21T13:41:55;8.48;;;2.63;;
59830;SDS011;45711;50.108;13.712;2022-08-21T13:44:31;5.18;;;2.33;;
59830;SDS011;45711;50.108;13.712;2022-08-21T13:47:00;7.35;;;2.47;;
59830;SDS011;45711;50.108;13.712;2022-08-21T13:49:29;4.85;;;2.53;;
59830;SDS011;45711;50.108;13.712;2022-08-21T13:51:58;5.97;;;2.53;;
59830;SDS011;45711;50.108;13.712;2022-08-21T13:54:25;7.57;;;2.70;;
59830;SDS011;45711;50.108;13.712;2022-08-21T13:56:52;6.35;;;2.15;;
59830;SDS011;45711;50.108;13.712;2022-08-21T13:59:26;12.00;;;2.42;;
59830;SDS011;45711;50.108;13.712;2022-08-21T14:01:54;8.70;;;2.30;;
59830;SDS011;45711;50.108;13.712;2022-08-21T14:04:26;5.40;;;2.45;;
59830;SDS011;45711;50.108;13.712;2022-08-21T14:06:58;8.43;;;2.60;;
59830;SDS011;45711;50.108;13.712;2022-08-21T14:09:25;6.57;;;2.42;;
59830;SDS011;45711;50.108;13.712;2022-08-21T14:11:55;4.82;;;2.40;;
59830;SDS011;45711;50.108;13.712;2022-08-21T14:14:24;3.40;;;2.38;;
59830;SDS011;45711;50.108;13.712;2022-08-21T14:16:55;5.80;;;2.28;;
59830;SDS011;45711;50.108;13.712;2022-08-21T14:19:23;6.57;;;2.45;;
59830;SDS011;45711;50.108;13.712;2022-08-21T14:21:50;8.38;;;2.63;;
59830;SDS011;45711;50.108;13.712;2022-08-21T14:24:24;5.03;;;2.33;;
59830;SDS011;45711;50.108;13.712;2022-08-21T14:26:52;8.40;;;2.50;;
59830;SDS011;45711;50.108;13.712;2022-08-21T14:29:20;7.82;;;2.10;;
59830;SDS011;45711;50.108;13.712;2022-08-21T14:31:52;10.65;;;2.67;;
59830;SDS011;45711;50.108;13.712;2022-08-21T14:34:21;5.88;;;2.20;;
59830;SDS011;45711;50.108;13.712;2022-08-21T14:36:48;8.98;;;2.95;;
59830;SDS011;45711;50.108;13.712;2022-08-21T14:39:15;6.53;;;2.45;;